Time;durP1;ratioP1;P1;durP2;ratioP2;P2;SDS_P1;SDS_P2;PMS_P1;PMS_P2;Temp;Humidity;BMP_temperature;BMP_pressure;BME280_temperature;BME280_humidity;BME280_pressure;Samples;Min_cycle;Max_cycle;Signal;HPM_P1;HPM_P2
2023/06/08 00:02:04;;;;;;;0.80;0.80;;;;;;;15.78;100.00;99818.56;4986241;28;20046;-89
2023/06/08 00:04:33;;;;;;;0.10;0.10;;;;;;;15.78;100.00;99818.56;4990437;28;20042;-89
2023/06/08 00:07:08;;;;;;;0.10;0.10;;;;;;;15.82;100.00;99819.16;4987935;28;20048;-89
2023/06/08 00:09:36;;;;;;;0.28;0.28;;;;;;;15.76;100.00;99821.06;4989301;28;20111;-89
2023/06/08 00:12:02;;;;;;;2.67;0.65;;;;;;;15.82;100.00;99833.13;5004258;28;20045;-89
2023/06/08 00:14:27;;;;;;;2.83;0.75;;;;;;;15.73;100.00;99821.25;5005701;28;20030;-89
2023/06/08 00:16:53;;;;;;;1.13;1.02;;;;;;;15.78;100.00;99832.53;4983255;28;20155;-89
2023/06/08 00:19:18;;;;;;;0.75;0.57;;;;;;;15.67;100.00;99818.34;5001088;28;20068;-89
2023/06/08 00:21:48;;;;;;;0.30;0.25;;;;;;;15.74;100.00;99834.75;4993391;28;20056;-89
2023/06/08 00:24:17;;;;;;;5.72;2.30;;;;;;;15.70;100.00;99811.78;4965961;28;20045;-89
2023/06/08 00:26:42;;;;;;;0.43;0.43;;;;;;;15.71;100.00;99829.34;5007307;28;20042;-89
2023/06/08 00:29:08;;;;;;;0.85;0.85;;;;;;;15.63;100.00;99823.34;5014911;28;20045;-89
2023/06/08 00:31:34;;;;;;;0.30;0.30;;;;;;;15.52;100.00;99806.34;5014775;28;20070;-88
2023/06/08 00:33:59;;;;;;;1.60;0.82;;;;;;;15.58;100.00;99815.59;4990820;28;20029;-88
2023/06/08 00:36:25;;;;;;;0.63;0.63;;;;;;;15.55;100.00;99813.75;4989928;28;20034;-88
2023/06/08 00:38:51;;;;;;;0.65;0.65;;;;;;;15.57;100.00;99816.84;4976160;28;20112;-88
2023/06/08 00:41:16;;;;;;;0.10;0.10;;;;;;;15.52;100.00;99811.94;5002488;28;20030;-88
2023/06/08 00:43:45;;;;;;;1.17;1.08;;;;;;;15.49;100.00;99804.44;4984697;28;20454;-88
2023/06/08 00:46:12;;;;;;;0.40;0.40;;;;;;;15.43;100.00;99797.97;4977314;28;20037;-88
2023/06/08 00:48:38;;;;;;;0.22;0.20;;;;;;;15.40;100.00;99807.31;4969963;28;20112;-88
2023/06/08 00:51:04;;;;;;;0.47;0.47;;;;;;;15.42;100.00;99810.41;4987600;28;20508;-88
2023/06/08 00:53:31;;;;;;;0.10;0.10;;;;;;;15.33;100.00;99794.44;4975986;28;20038;-88
2023/06/08 00:55:57;;;;;;;0.98;0.85;;;;;;;15.37;100.00;99811.03;4985061;28;20080;-88
2023/06/08 00:58:24;;;;;;;0.15;0.15;;;;;;;15.33;100.00;99804.84;4997913;28;20033;-89
2023/06/08 01:03:35;;;;;;;1.08;0.50;;;;;;;15.10;100.00;99783.25;5761717;23;20393;-91
2023/06/08 01:06:08;;;;;;;1.85;1.23;;;;;;;15.17;100.00;99796.88;4996799;28;20120;-90
2023/06/08 01:08:42;;;;;;;1.17;0.88;;;;;;;15.30;100.00;99800.22;4978244;28;20045;-90
2023/06/08 01:11:27;;;;;;;3.10;1.63;;;;;;;15.37;100.00;99803.44;4978299;28;20092;-91
2023/06/08 01:14:12;;;;;;;2.83;1.90;;;;;;;15.39;100.00;99797.38;5007815;28;20033;-91
2023/06/08 01:16:44;;;;;;;0.55;0.55;;;;;;;15.39;100.00;99806.53;4993997;28;20033;-92
2023/06/08 01:19:17;;;;;;;0.38;0.38;;;;;;;15.38;100.00;99812.59;4987877;28;20342;-92
2023/06/08 01:21:56;;;;;;;1.58;1.48;;;;;;;15.34;100.00;99812.00;4992459;28;20460;-91
2023/06/08 01:24:24;;;;;;;0.60;0.57;;;;;;;15.32;100.00;99806.13;4992649;28;20041;-91
2023/06/08 01:26:52;;;;;;;2.13;0.85;;;;;;;15.34;100.00;99800.81;5002792;28;20559;-90
2023/06/08 01:29:25;;;;;;;0.63;0.63;;;;;;;15.34;100.00;99795.22;4998442;28;20084;-91
2023/06/08 01:31:50;;;;;;;0.27;0.27;;;;;;;15.35;100.00;99803.16;5004420;28;20519;-91
2023/06/08 01:34:16;;;;;;;0.85;0.77;;;;;;;15.28;100.00;99791.56;5004329;28;20060;-90
2023/06/08 01:36:51;;;;;;;0.60;0.57;;;;;;;15.37;100.00;99802.66;5000548;28;20021;-91
2023/06/08 01:39:26;;;;;;;0.45;0.40;;;;;;;15.26;100.00;99788.44;4999724;28;20036;-91
2023/06/08 01:41:55;;;;;;;1.02;0.95;;;;;;;15.33;100.00;99802.06;5013784;28;20451;-91
2023/06/08 01:44:21;;;;;;;0.28;0.28;;;;;;;15.31;100.00;99801.78;4978960;28;20037;-92
2023/06/08 01:47:06;;;;;;;1.00;0.82;;;;;;;15.28;100.00;99792.34;4998321;28;20516;-91
2023/06/08 01:49:32;;;;;;;1.30;1.23;;;;;;;15.35;100.00;99802.38;5027280;28;20401;-92
2023/06/08 01:51:58;;;;;;;1.55;1.45;;;;;;;15.32;100.00;99804.09;5005329;28;20064;-92
2023/06/08 01:54:23;;;;;;;1.05;1.00;;;;;;;15.35;100.00;99797.56;4988552;28;20045;-92
2023/06/08 01:56:51;;;;;;;1.40;1.15;;;;;;;15.33;100.00;99786.06;4997546;28;20033;-92
2023/06/08 01:59:16;;;;;;;1.45;1.35;;;;;;;15.35;100.00;99786.38;5007192;28;20037;-90
2023/06/08 02:01:42;;;;;;;0.80;0.80;;;;;;;15.28;100.00;99777.59;4999315;28;20029;-92
2023/06/08 02:04:07;;;;;;;2.97;1.05;;;;;;;15.33;100.00;99788.88;4982714;28;20037;-92
2023/06/08 02:06:33;;;;;;;0.73;0.73;;;;;;;15.34;100.00;99778.47;5007853;28;20040;-92
2023/06/08 02:09:00;;;;;;;0.60;0.60;;;;;;;15.32;100.00;99776.16;5009167;28;20033;-92
2023/06/08 02:11:25;;;;;;;1.42;1.00;;;;;;;15.39;100.00;99777.81;4994940;28;20491;-91
2023/06/08 02:13:52;;;;;;;1.05;1.02;;;;;;;15.40;100.00;99782.16;4998891;28;20060;-92
2023/06/08 02:16:18;;;;;;;1.63;1.52;;;;;;;15.37;100.00;99766.31;4995326;28;20061;-91
2023/06/08 02:18:45;;;;;;;0.63;0.47;;;;;;;15.39;100.00;99780.59;4984102;28;20492;-91
2023/06/08 02:21:11;;;;;;;1.23;1.13;;;;;;;15.39;100.00;99775.03;5003339;28;20029;-92
2023/06/08 02:23:38;;;;;;;13.00;0.93;;;;;;;15.39;100.00;99780.59;4999130;28;20106;-92
2023/06/08 02:26:05;;;;;;;0.63;0.63;;;;;;;15.45;100.00;99784.28;5009627;28;20029;-92
2023/06/08 02:28:31;;;;;;;0.77;0.77;;;;;;;15.47;100.00;99790.19;5015209;28;20077;-92
2023/06/08 02:30:56;;;;;;;0.22;0.22;;;;;;;15.48;100.00;99786.16;5026123;28;20064;-92
2023/06/08 02:33:22;;;;;;;0.70;0.68;;;;;;;15.45;100.00;99786.34;4979311;28;20091;-92
2023/06/08 02:35:48;;;;;;;0.77;0.63;;;;;;;15.46;100.00;99788.63;4980554;28;20030;-91
2023/06/08 02:38:15;;;;;;;0.85;0.85;;;;;;;15.43;100.00;99786.78;5012931;28;20045;-91
2023/06/08 02:40:41;;;;;;;1.13;0.90;;;;;;;15.47;100.00;99781.03;4979023;28;20052;-92
2023/06/08 02:43:08;;;;;;;0.95;0.75;;;;;;;15.46;100.00;99796.25;4996264;28;20029;-92
2023/06/08 02:45:34;;;;;;;0.73;0.70;;;;;;;15.39;100.00;99784.19;4992281;28;20087;-92
2023/06/08 02:48:02;;;;;;;1.55;1.17;;;;;;;15.42;100.00;99779.66;4994313;28;20080;-91
2023/06/08 02:50:30;;;;;;;0.38;0.38;;;;;;;15.34;100.00;99787.63;4988918;28;20040;-91
2023/06/08 02:52:56;;;;;;;0.82;0.82;;;;;;;15.33;100.00;99794.44;4975097;28;20034;-91
2023/06/08 02:55:22;;;;;;;0.77;0.77;;;;;;;15.23;100.00;99806.19;5001288;28;20047;-91
2023/06/08 02:57:52;;;;;;;0.95;0.95;;;;;;;15.15;100.00;99796.59;5007673;28;20086;-91
2023/06/08 03:00:20;;;;;;;0.85;0.85;;;;;;;15.11;100.00;99793.19;5003142;28;20416;-92
2023/06/08 03:03:12;;;;;;;0.25;0.25;;;;;;;15.03;100.00;99790.00;4983803;28;20036;-92
2023/06/08 03:05:39;;;;;;;0.98;0.90;;;;;;;15.11;100.00;99798.78;4976489;28;20026;-92
2023/06/08 03:08:07;;;;;;;0.40;0.40;;;;;;;15.10;100.00;99788.84;5005680;28;20033;-92
2023/06/08 03:10:32;;;;;;;1.58;1.48;;;;;;;15.10;100.00;99791.66;5019635;28;20036;-91
2023/06/08 03:12:58;;;;;;;0.40;0.40;;;;;;;15.07;100.00;99784.22;5010198;28;20599;-92
2023/06/08 03:15:24;;;;;;;0.73;0.73;;;;;;;15.11;100.00;99799.56;4998041;28;20030;-92
2023/06/08 03:17:56;;;;;;;0.20;0.20;;;;;;;15.03;100.00;99781.59;4983241;28;20532;-92
2023/06/08 03:20:21;;;;;;;0.47;0.30;;;;;;;15.06;100.00;99785.47;4988212;28;20064;-92
2023/06/08 03:22:57;;;;;;;1.13;0.90;;;;;;;15.16;100.00;99795.34;5024771;28;20884;-92
2023/06/08 03:25:24;;;;;;;0.38;0.38;;;;;;;15.14;100.00;99792.25;4989139;28;20040;-91
2023/06/08 03:27:50;;;;;;;0.10;0.10;;;;;;;15.26;100.00;99800.41;5001929;28;20155;-93
2023/06/08 03:30:16;;;;;;;0.30;0.10;;;;;;;15.22;100.00;99793.44;4987086;28;20480;-91
2023/06/08 03:32:48;;;;;;;0.60;0.50;;;;;;;15.28;100.00;99802.72;4993891;28;20033;-91
2023/06/08 03:35:17;;;;;;;0.93;0.93;;;;;;;15.33;100.00;99799.28;5015923;28;20495;-92
2023/06/08 03:37:45;;;;;;;0.10;0.10;;;;;;;15.34;100.00;99807.19;4989534;28;20049;-91
2023/06/08 03:40:20;;;;;;;0.95;0.95;;;;;;;15.24;100.00;99780.56;4983246;28;20041;-92
2023/06/08 03:42:50;;;;;;;0.30;0.30;;;;;;;15.38;100.00;99807.00;4982667;28;20057;-91
2023/06/08 03:45:20;;;;;;;0.22;0.22;;;;;;;15.47;100.00;99801.38;4997663;28;20029;-91
2023/06/08 03:47:50;;;;;;;0.22;0.22;;;;;;;15.51;100.00;99807.56;4994440;28;20056;-92
2023/06/08 03:50:16;;;;;;;0.80;0.80;;;;;;;15.49;100.00;99807.25;5001426;28;20041;-91
2023/06/08 03:52:41;;;;;;;0.60;0.57;;;;;;;15.56;100.00;99806.94;5006358;28;20042;-91
2023/06/08 03:55:07;;;;;;;0.50;0.50;;;;;;;15.57;100.00;99805.66;4994066;28;20063;-92
2023/06/08 03:57:34;;;;;;;0.77;0.77;;;;;;;15.63;100.00;99806.56;4996709;28;20041;-91
2023/06/08 03:59:59;;;;;;;0.47;0.45;;;;;;;15.73;100.00;99822.00;4989150;28;20456;-92
2023/06/08 04:02:25;;;;;;;0.40;0.40;;;;;;;15.76;100.00;99820.28;4981110;28;20033;-91
2023/06/08 04:04:53;;;;;;;1.02;1.02;;;;;;;15.83;100.00;99825.53;4998545;28;20049;-90
2023/06/08 04:07:20;;;;;;;0.60;0.52;;;;;;;15.84;100.00;99822.25;4998896;28;20088;-90
2023/06/08 04:09:47;;;;;;;1.20;1.10;;;;;;;15.91;100.00;99834.31;5006427;28;20441;-91
2023/06/08 04:12:15;;;;;;;1.15;0.73;;;;;;;15.96;100.00;99828.06;5000836;28;20480;-92
2023/06/08 04:14:41;;;;;;;0.45;0.45;;;;;;;16.01;100.00;99819.00;5014249;28;20030;-92
2023/06/08 04:17:07;;;;;;;1.02;0.30;;;;;;;16.05;100.00;99825.19;5006847;28;20034;-91
2023/06/08 04:19:33;;;;;;;0.68;0.43;;;;;;;16.09;100.00;99823.75;4989178;28;20032;-91
2023/06/08 04:22:00;;;;;;;0.65;0.65;;;;;;;16.10;100.00;99821.72;5015597;28;20481;-91
2023/06/08 04:24:29;;;;;;;0.60;0.60;;;;;;;16.19;100.00;99824.44;4996301;28;20026;-91
2023/06/08 04:26:56;;;;;;;0.10;0.10;;;;;;;16.20;100.00;99825.97;5001273;28;20032;-91
2023/06/08 04:29:22;;;;;;;0.60;0.60;;;;;;;16.15;100.00;99818.25;5015815;28;20480;-90
2023/06/08 04:31:51;;;;;;;0.68;0.52;;;;;;;16.28;100.00;99832.75;5005644;28;20124;-92
2023/06/08 04:34:17;;;;;;;1.08;0.70;;;;;;;16.25;100.00;99816.94;4986057;28;20033;-93
2023/06/08 04:36:43;;;;;;;0.28;0.28;;;;;;;16.34;100.00;99825.97;4981983;28;20079;-93
2023/06/08 04:39:11;;;;;;;0.10;0.10;;;;;;;16.37;100.00;99823.50;4992485;28;20036;-93
2023/06/08 04:41:38;;;;;;;0.85;0.60;;;;;;;16.27;100.00;99814.41;4997629;28;20029;-94
2023/06/08 04:44:05;;;;;;;0.73;0.70;;;;;;;16.37;100.00;99827.06;4994390;28;20060;-93
2023/06/08 04:46:33;;;;;;;0.32;0.30;;;;;;;16.38;100.00;99825.03;4999788;28;20034;-91
2023/06/08 04:48:59;;;;;;;0.35;0.28;;;;;;;16.33;100.00;99820.88;5016784;28;20079;-91
2023/06/08 04:51:29;;;;;;;0.95;0.73;;;;;;;16.30;100.00;99819.03;5015878;28;20058;-91
2023/06/08 04:53:56;;;;;;;0.30;0.30;;;;;;;16.37;100.00;99820.69;4982504;28;20029;-91
2023/06/08 04:56:24;;;;;;;0.93;0.80;;;;;;;16.38;100.00;99819.44;5027352;28;20115;-93
2023/06/08 04:58:50;;;;;;;0.40;0.40;;;;;;;16.47;100.00;99822.91;5035687;28;20039;-93
2023/06/08 05:01:18;;;;;;;0.50;0.50;;;;;;;16.56;100.00;99819.25;5005249;28;20455;-93
2023/06/08 05:03:43;;;;;;;0.93;0.65;;;;;;;16.69;100.00;99820.53;5003817;28;20042;-93
2023/06/08 05:06:09;;;;;;;0.40;0.40;;;;;;;16.90;100.00;99829.00;5014216;28;20037;-92
2023/06/08 05:08:35;;;;;;;0.30;0.30;;;;;;;16.93;100.00;99812.00;5001465;28;20033;-92
2023/06/08 05:11:00;;;;;;;0.88;0.70;;;;;;;17.07;100.00;99822.38;5028970;28;20111;-93
2023/06/08 05:13:26;;;;;;;0.30;0.30;;;;;;;17.07;100.00;99816.78;5017113;28;20024;-94
2023/06/08 05:15:51;;;;;;;0.88;0.88;;;;;;;17.17;100.00;99823.06;4978272;28;20053;-94
2023/06/08 05:18:17;;;;;;;0.65;0.52;;;;;;;17.28;100.00;99820.41;5015444;28;20083;-94
2023/06/08 05:20:42;;;;;;;0.43;0.35;;;;;;;17.22;100.00;99800.72;4998546;28;20076;-93
2023/06/08 05:23:08;;;;;;;0.60;0.60;;;;;;;17.44;100.00;99831.06;5016920;28;20102;-93
2023/06/08 05:25:36;;;;;;;0.65;0.65;;;;;;;17.57;100.00;99817.53;4984543;28;20030;-93
2023/06/08 05:28:03;;;;;;;1.30;1.20;;;;;;;17.70;100.00;99825.59;5011375;28;20037;-93
2023/06/08 05:30:28;;;;;;;0.80;0.45;;;;;;;17.88;100.00;99821.72;5016137;28;20037;-92
2023/06/08 05:32:55;;;;;;;0.35;0.35;;;;;;;18.02;100.00;99820.88;4993699;28;20492;-92
2023/06/08 05:35:21;;;;;;;0.43;0.38;;;;;;;18.11;100.00;99803.88;4991281;28;20116;-91
2023/06/08 05:37:46;;;;;;;0.30;0.30;;;;;;;18.28;100.00;99810.41;5005803;28;20091;-91
2023/06/08 05:40:12;;;;;;;0.55;0.38;;;;;;;18.39;100.00;99807.72;5005641;28;20397;-92
2023/06/08 05:42:38;;;;;;;0.45;0.45;;;;;;;18.47;100.00;99811.63;5020031;28;20073;-90
2023/06/08 05:45:04;;;;;;;0.55;0.40;;;;;;;18.63;100.00;99811.03;5017361;28;20025;-90
2023/06/08 05:47:29;;;;;;;0.43;0.28;;;;;;;18.77;100.00;99814.97;4983582;28;20168;-91
2023/06/08 05:49:55;;;;;;;0.68;0.68;;;;;;;18.79;100.00;99814.50;5029903;28;20040;-93
2023/06/08 05:52:20;;;;;;;0.38;0.38;;;;;;;18.97;100.00;99816.91;5001965;28;20040;-94
2023/06/08 05:54:46;;;;;;;0.40;0.40;;;;;;;19.18;100.00;99821.16;4981698;28;20942;-93
2023/06/08 05:57:12;;;;;;;0.22;0.22;;;;;;;19.33;100.00;99821.75;5007807;28;20504;-96
2023/06/08 05:59:38;;;;;;;1.92;1.30;;;;;;;19.43;100.00;99809.06;5002701;28;20033;-96
2023/06/08 06:02:04;;;;;;;0.93;0.75;;;;;;;19.55;100.00;99798.63;4971562;28;20032;-95
2023/06/08 06:04:30;;;;;;;0.75;0.55;;;;;;;19.78;100.00;99805.13;5001228;28;20034;-95
2023/06/08 06:06:56;;;;;;;0.73;0.65;;;;;;;19.97;100.00;99828.75;4991350;28;20060;-96
2023/06/08 06:09:21;;;;;;;0.60;0.60;;;;;;;19.82;100.00;99800.78;4973279;28;20064;-95
2023/06/08 06:11:48;;;;;;;0.85;0.75;;;;;;;19.64;100.00;99792.03;4981473;28;20042;-95
2023/06/08 06:14:13;;;;;;;1.05;0.85;;;;;;;19.57;100.00;99798.16;4982880;28;20327;-94
2023/06/08 06:16:39;;;;;;;0.32;0.32;;;;;;;19.46;100.00;99819.31;4993805;28;20061;-96
2023/06/08 06:19:05;;;;;;;0.75;0.60;;;;;;;19.48;100.00;99796.31;4981758;28;20037;-96
2023/06/08 06:21:30;;;;;;;0.68;0.68;;;;;;;19.68;100.00;99817.88;5002873;28;20045;-94
2023/06/08 06:23:56;;;;;;;0.45;0.45;;;;;;;19.66;100.00;99803.53;4988806;28;20045;-95
2023/06/08 06:26:22;;;;;;;0.50;0.17;;;;;;;19.75;100.00;99789.25;5003995;28;20079;-96
2023/06/08 06:28:49;;;;;;;0.55;0.50;;;;;;;20.13;100.00;99808.31;5000433;28;20053;-94
2023/06/08 06:31:16;;;;;;;0.40;0.40;;;;;;;20.26;100.00;99816.28;4989741;28;20034;-96
2023/06/08 06:33:42;;;;;;;0.55;0.55;;;;;;;20.22;100.00;99788.34;5027146;28;20046;-96
2023/06/08 06:36:10;;;;;;;0.95;0.35;;;;;;;20.61;100.00;99836.34;4991984;28;20079;-96
2023/06/08 06:38:36;;;;;;;5.22;0.90;;;;;;;20.37;100.00;99788.16;5012070;28;20029;-96
2023/06/08 06:41:05;;;;;;;0.40;0.40;;;;;;;20.43;100.00;99809.41;5011901;28;20041;-96
2023/06/08 06:43:31;;;;;;;1.38;0.35;;;;;;;20.64;100.00;99806.34;5007240;28;20059;-95
2023/06/08 06:46:03;;;;;;;2.33;0.60;;;;;;;20.74;100.00;99804.84;5017417;28;20054;-96
2023/06/08 06:48:30;;;;;;;1.88;0.65;;;;;;;21.09;100.00;99818.38;5016276;28;20080;-96
2023/06/08 06:50:56;;;;;;;0.73;0.57;;;;;;;21.11;100.00;99808.13;5029330;28;20041;-96
2023/06/08 06:53:23;;;;;;;2.47;0.57;;;;;;;21.19;100.00;99795.06;5017690;28;20822;-96
2023/06/08 06:55:49;;;;;;;0.57;0.55;;;;;;;21.36;100.00;99792.19;4996336;28;20524;-96
2023/06/08 06:58:15;;;;;;;4.68;1.67;;;;;;;21.57;100.00;99787.00;5032557;28;20034;-95
2023/06/08 07:00:42;;;;;;;0.73;0.60;;;;;;;22.00;100.00;99836.13;5020320;28;20042;-96
2023/06/08 07:03:11;;;;;;;1.27;0.82;;;;;;;21.81;100.00;99792.81;5030802;28;20029;-96
2023/06/08 07:05:42;;;;;;;1.50;1.23;;;;;;;21.89;100.00;99790.97;4995916;28;20034;-96
2023/06/08 07:08:12;;;;;;;0.60;0.55;;;;;;;22.19;100.00;99794.69;4995874;28;20058;-96
2023/06/08 07:10:44;;;;;;;1.30;0.65;;;;;;;22.29;100.00;99792.28;5019271;28;20061;-96
2023/06/08 07:35:03;;;;;;;0.40;0.40;;;;;;;23.56;100.00;99792.47;5022015;28;20053;-95
2023/06/08 07:37:30;;;;;;;0.95;0.90;;;;;;;23.39;100.00;99791.88;5031969;28;20113;-95
2023/06/08 07:39:56;;;;;;;0.30;0.30;;;;;;;23.27;100.00;99808.22;5009046;28;20105;-95
2023/06/08 07:42:21;;;;;;;0.57;0.57;;;;;;;23.06;100.00;99790.16;5003313;28;20064;-94
2023/06/08 07:44:48;;;;;;;0.60;0.60;;;;;;;23.31;100.00;99788.88;5000009;28;20029;-94
2023/06/08 07:47:14;;;;;;;0.38;0.30;;;;;;;23.72;100.00;99813.41;5018374;28;20072;-93
2023/06/08 07:49:40;;;;;;;0.43;0.43;;;;;;;23.86;100.00;99823.53;4993880;28;20018;-96
2023/06/08 07:52:06;;;;;;;0.50;0.25;;;;;;;23.87;100.00;99816.53;5013328;28;20049;-95
2023/06/08 07:54:36;;;;;;;0.68;0.60;;;;;;;23.66;100.00;99800.06;4994965;28;20025;-95
2023/06/08 07:57:26;;;;;;;0.45;0.45;;;;;;;23.76;100.00;99789.16;5014385;28;20045;-93
2023/06/08 07:59:51;;;;;;;0.82;0.45;;;;;;;23.93;100.00;99814.41;4998422;28;20095;-95
2023/06/08 08:02:17;;;;;;;1.10;0.52;;;;;;;24.27;100.00;99815.50;4985749;28;20484;-95
2023/06/08 08:04:42;;;;;;;0.47;0.47;;;;;;;24.53;100.00;99809.22;4978725;28;20042;-94
2023/06/08 08:07:08;;;;;;;0.43;0.43;;;;;;;24.47;100.00;99811.34;5012899;28;20052;-95
2023/06/08 08:09:35;;;;;;;1.15;0.98;;;;;;;24.61;100.00;99805.22;4980888;28;20159;-94
2023/06/08 08:12:00;;;;;;;1.70;1.05;;;;;;;24.76;100.00;99810.38;4992895;28;20055;-95
2023/06/08 08:14:27;;;;;;;0.98;0.57;;;;;;;25.08;100.00;99808.28;5006781;28;20567;-93
2023/06/08 08:16:52;;;;;;;0.47;0.47;;;;;;;25.43;100.00;99826.25;5014667;28;20017;-94
2023/06/08 08:19:18;;;;;;;1.05;0.93;;;;;;;25.42;97.14;99831.16;4999586;28;20045;-95
2023/06/08 08:21:43;;;;;;;0.80;0.80;;;;;;;25.01;95.64;99820.28;5002493;28;20363;-95
2023/06/08 08:24:09;;;;;;;2.00;1.48;;;;;;;24.68;100.00;99806.63;4987923;28;20052;-94
2023/06/08 08:26:41;;;;;;;1.00;0.63;;;;;;;24.52;100.00;99813.34;5015696;28;20124;-95
2023/06/08 08:29:07;;;;;;;1.25;1.08;;;;;;;24.90;100.00;99800.63;4986668;28;20033;-96
2023/06/08 08:31:33;;;;;;;1.45;1.17;;;;;;;25.14;99.72;99787.56;5028522;28;20061;-96
2023/06/08 08:33:58;;;;;;;0.30;0.30;;;;;;;25.64;92.34;99809.34;5003650;28;20152;-95
2023/06/08 08:36:24;;;;;;;0.45;0.45;;;;;;;25.96;91.85;99793.66;5008435;28;20048;-94
2023/06/08 08:38:53;;;;;;;0.90;0.55;;;;;;;26.34;86.51;99794.13;5028201;28;20191;-95
2023/06/08 08:41:21;;;;;;;0.70;0.70;;;;;;;26.25;85.35;99791.00;5017645;28;20113;-95
2023/06/08 08:43:50;;;;;;;0.60;0.57;;;;;;;26.17;88.66;99830.69;5008257;28;20038;-95
2023/06/08 08:46:17;;;;;;;1.23;0.55;;;;;;;25.78;88.57;99793.81;5006302;28;20037;-95
2023/06/08 08:48:43;;;;;;;0.90;0.85;;;;;;;25.79;91.74;99793.28;4996070;28;20485;-96
2023/06/08 08:51:21;;;;;;;0.22;0.22;;;;;;;26.02;90.93;99796.41;4999737;28;20132;-95
2023/06/08 08:53:48;;;;;;;1.50;0.80;;;;;;;26.30;85.91;99793.72;5019958;28;20069;-96
2023/06/08 08:56:20;;;;;;;0.68;0.52;;;;;;;26.41;85.11;99778.47;5022857;28;20060;-96
2023/06/08 08:58:53;;;;;;;0.55;0.55;;;;;;;26.27;86.52;99782.69;4996208;28;20399;-95
2023/06/08 09:01:22;;;;;;;;;;;;;;;26.24;88.88;99823.59;5020683;28;20103;-95
2023/06/08 09:03:48;;;;;;;0.47;0.40;;;;;;;25.52;96.55;99805.91;5017007;28;19964;-95
2023/06/08 09:06:14;;;;;;;0.50;0.50;;;;;;;25.27;100.00;99813.91;4996563;28;20043;-95
2023/06/08 09:08:40;;;;;;;0.75;0.60;;;;;;;25.12;100.00;99812.88;5004826;28;20565;-95
2023/06/08 09:11:10;;;;;;;0.63;0.63;;;;;;;24.40;100.00;99786.47;5011091;28;20043;-95
2023/06/08 09:13:36;;;;;;;0.20;0.20;;;;;;;24.26;100.00;99797.00;5009829;28;20047;-95
2023/06/08 09:16:16;;;;;;;0.77;0.77;;;;;;;23.76;100.00;99780.66;4994386;28;20335;-94
2023/06/08 09:18:43;;;;;;;0.82;0.30;;;;;;;23.79;100.00;99807.88;4993096;28;20052;-95
2023/06/08 09:21:27;;;;;;;0.73;0.73;;;;;;;23.64;100.00;99801.91;5012276;28;20032;-95
2023/06/08 09:24:11;;;;;;;0.80;0.65;;;;;;;23.74;100.00;99817.22;5023977;28;20041;-94
2023/06/08 09:26:57;;;;;;;0.40;0.40;;;;;;;23.50;100.00;99820.06;5012444;28;20037;-94
2023/06/08 09:29:37;;;;;;;0.55;0.55;;;;;;;23.44;100.00;99816.56;5030091;23;20054;-88
2023/06/08 09:32:04;;;;;;;1.05;0.77;;;;;;;23.52;100.00;99814.66;4990921;28;20076;-89
2023/06/08 09:34:33;;;;;;;0.63;0.57;;;;;;;23.44;100.00;99808.06;5007249;28;20045;-89
2023/06/08 09:37:10;;;;;;;0.68;0.65;;;;;;;23.09;100.00;99818.16;4991055;28;20045;-89
2023/06/08 09:39:43;;;;;;;0.30;0.30;;;;;;;22.92;100.00;99786.44;4973807;28;20045;-88
2023/06/08 09:42:10;;;;;;;0.95;0.70;;;;;;;23.07;100.00;99786.03;5000513;28;20030;-89
2023/06/08 09:44:36;;;;;;;0.40;0.40;;;;;;;23.03;100.00;99777.06;5020121;28;20052;-90
2023/06/08 09:47:22;;;;;;;0.52;0.40;;;;;;;23.14;100.00;99791.88;4989598;28;20038;-89
2023/06/08 09:49:55;;;;;;;1.00;0.90;;;;;;;23.15;100.00;99793.41;5026425;28;20049;-89
2023/06/08 09:52:22;;;;;;;6.13;1.02;;;;;;;23.15;100.00;99781.31;5009744;28;20029;-89
2023/06/08 09:54:48;;;;;;;1.27;0.95;;;;;;;23.13;100.00;99767.69;4988928;28;20104;-89
2023/06/08 09:57:18;;;;;;;0.70;0.65;;;;;;;23.44;100.00;99785.41;5025706;28;20026;-89
2023/06/08 09:59:54;;;;;;;0.75;0.52;;;;;;;23.46;100.00;99786.41;5025266;28;20056;-89
2023/06/08 10:02:24;;;;;;;1.23;1.08;;;;;;;23.86;100.00;99787.44;5003159;28;20034;-89
2023/06/08 10:04:55;;;;;;;1.10;0.50;;;;;;;24.28;100.00;99765.25;5004621;28;20041;-89
2023/06/08 10:07:25;;;;;;;2.63;1.10;;;;;;;24.53;100.00;99758.16;4992588;28;20034;-89
2023/06/08 10:09:59;;;;;;;0.65;0.60;;;;;;;25.12;100.00;99767.47;4974067;28;20109;-89
2023/06/08 10:12:27;;;;;;;1.63;1.02;;;;;;;25.28;100.00;99763.53;4993418;28;20053;-89
2023/06/08 10:14:54;;;;;;;0.60;0.60;;;;;;;25.55;100.00;99765.13;5006983;28;20034;-90
2023/06/08 10:17:23;;;;;;;0.47;0.47;;;;;;;25.94;97.32;99755.75;5015174;28;20045;-89
2023/06/08 10:19:53;;;;;;;1.45;1.17;;;;;;;26.21;92.74;99745.84;5001937;28;20033;-90
2023/06/08 10:22:19;;;;;;;0.22;0.22;;;;;;;26.39;89.08;99744.13;4998988;28;20050;-89
2023/06/08 10:24:46;;;;;;;0.50;0.50;;;;;;;26.70;89.77;99763.00;4990497;28;20094;-89
2023/06/08 10:27:32;;;;;;;0.65;0.43;;;;;;;26.60;77.26;99761.97;5004333;28;20057;-89
2023/06/08 10:30:06;;;;;;;0.70;0.57;;;;;;;26.70;78.60;99756.56;4981172;28;20051;-90
2023/06/08 10:32:38;;;;;;;0.40;0.40;;;;;;;26.61;81.91;99743.56;4989887;28;20050;-90
2023/06/08 10:35:06;;;;;;;1.05;0.95;;;;;;;26.25;89.64;99728.44;4991381;28;20030;-89
2023/06/08 10:37:35;;;;;;;0.63;0.40;;;;;;;26.02;90.09;99738.78;4988931;28;20140;-89
2023/06/08 10:40:09;;;;;;;0.68;0.57;;;;;;;25.94;92.60;99725.25;4992920;28;20121;-89
2023/06/08 10:42:53;;;;;;;1.00;0.77;;;;;;;25.76;88.75;99729.00;4958743;28;20081;-89
2023/06/08 10:45:31;;;;;;;0.60;0.60;;;;;;;25.31;84.08;99711.38;4982956;28;20498;-89
2023/06/08 10:48:04;;;;;;;1.02;0.43;;;;;;;25.14;89.67;99720.22;4974470;28;20104;-89
2023/06/08 10:50:37;;;;;;;0.30;0.30;;;;;;;24.85;91.94;99688.00;4977015;28;20453;-90
2023/06/08 10:53:03;;;;;;;0.52;0.30;;;;;;;24.99;92.60;99712.22;4980188;28;20034;-89
2023/06/08 10:55:29;;;;;;;1.13;0.65;;;;;;;24.90;91.68;99707.00;4980477;28;20060;-89
2023/06/08 10:58:05;;;;;;;1.92;0.77;;;;;;;24.86;90.94;99709.41;4973377;28;20041;-89
2023/06/08 11:00:42;;;;;;;0.80;0.80;;;;;;;25.13;90.70;99701.66;4984588;28;20042;-89
2023/06/08 11:03:10;;;;;;;0.40;0.40;;;;;;;25.89;90.45;99692.03;4990041;28;20037;-89
2023/06/08 11:05:37;;;;;;;1.45;1.35;;;;;;;26.42;84.64;99686.16;4987184;28;20042;-89
2023/06/08 11:08:04;;;;;;;0.63;0.63;;;;;;;27.13;74.90;99696.19;4988401;28;20034;-89
2023/06/08 11:10:39;;;;;;;0.70;0.68;;;;;;;27.58;71.53;99687.16;4987659;28;20065;-89
2023/06/08 11:13:10;;;;;;;0.60;0.60;;;;;;;27.82;65.25;99687.41;4985318;28;20034;-90
2023/06/08 11:15:37;;;;;;;0.40;0.40;;;;;;;27.96;60.34;99693.72;4972302;28;20073;-90
2023/06/08 11:18:04;;;;;;;0.60;0.60;;;;;;;27.94;63.19;99681.38;4969645;28;20026;-90
2023/06/08 11:20:30;;;;;;;0.85;0.50;;;;;;;27.74;61.49;99678.06;4994869;28;20095;-89
2023/06/08 11:23:05;;;;;;;0.45;0.45;;;;;;;27.85;62.33;99665.56;4964538;28;20034;-89
2023/06/08 11:25:31;;;;;;;0.70;0.70;;;;;;;28.50;60.04;99674.63;4978687;28;20436;-90
2023/06/08 11:27:57;;;;;;;0.30;0.30;;;;;;;28.70;62.99;99665.13;4971772;28;20053;-90
2023/06/08 11:30:28;;;;;;;1.30;0.65;;;;;;;28.87;54.73;99659.59;4969797;28;20051;-90
2023/06/08 11:32:54;;;;;;;0.50;0.50;;;;;;;29.02;57.12;99665.25;4958996;28;20056;-90
2023/06/08 11:35:31;;;;;;;0.70;0.70;;;;;;;28.76;51.05;99662.81;4946695;28;20029;-89
2023/06/08 11:38:00;;;;;;;0.63;0.55;;;;;;;29.09;54.53;99667.34;4989265;28;20412;-89
2023/06/08 11:40:27;;;;;;;0.73;0.73;;;;;;;28.94;56.17;99672.31;4976583;28;20208;-91
2023/06/08 11:42:53;;;;;;;0.20;0.20;;;;;;;29.06;56.13;99650.59;4972250;28;20038;-90
2023/06/08 11:45:18;;;;;;;0.25;0.25;;;;;;;28.99;54.14;99663.56;4988667;28;20033;-89
2023/06/08 11:47:54;;;;;;;0.80;0.52;;;;;;;28.71;56.92;99647.41;4973056;28;20046;-90
2023/06/08 11:50:20;;;;;;;0.30;0.30;;;;;;;28.09;55.57;99661.47;4978955;28;20452;-90
2023/06/08 11:52:46;;;;;;;0.75;0.47;;;;;;;28.41;55.36;99650.28;4990505;28;20316;-90
2023/06/08 11:55:15;;;;;;;0.88;0.75;;;;;;;27.70;54.80;99637.03;4978166;28;20216;-90
2023/06/08 11:57:44;;;;;;;1.38;0.63;;;;;;;27.63;59.73;99640.59;5007954;28;20058;-90